createdAt,value
2022-10-29T00:00:17.574Z,11.88
2022-10-29T00:00:43.311Z,12.43
2022-10-29T00:01:06.249Z,12.20
2022-10-29T00:01:29.132Z,11.10
2022-10-29T00:01:51.909Z,10.77
2022-10-29T00:02:14.598Z,10.40
2022-10-29T00:02:37.381Z,10.90
2022-10-29T00:03:00.240Z,10.90
2022-10-29T00:03:24.575Z,11.02
2022-10-29T00:03:48.671Z,11.50
2022-10-29T00:04:11.473Z,10.50
2022-10-29T00:04:34.258Z,10.60
2022-10-29T00:04:57.028Z,11.07
2022-10-29T00:05:19.847Z,10.90
2022-10-29T00:05:42.577Z,10.57
2022-10-29T00:06:06.484Z,10.30
2022-10-29T00:06:29.553Z,10.35
2022-10-29T00:06:52.314Z,11.00
2022-10-29T00:07:15.047Z,10.57
2022-10-29T00:07:37.884Z,10.98
2022-10-29T00:08:00.578Z,11.15
2022-10-29T00:08:23.368Z,11.10
2022-10-29T00:08:46.622Z,11.52
2022-10-29T00:09:10.569Z,12.75
2022-10-29T00:09:33.308Z,12.95
2022-10-29T00:09:58.575Z,13.50
2022-10-29T00:10:21.357Z,14.35
2022-10-29T00:10:44.120Z,13.55
2022-10-29T00:11:07.827Z,12.93
2022-10-29T00:11:30.558Z,13.05
2022-10-29T00:11:53.392Z,14.02
2022-10-29T00:12:16.084Z,13.90
2022-10-29T00:12:38.893Z,14.32
2022-10-29T00:13:02.604Z,14.70
2022-10-29T00:13:25.514Z,15.82
2022-10-29T00:13:48.799Z,17.95
2022-10-29T00:14:11.656Z,17.23
2022-10-29T00:14:34.499Z,16.67
2022-10-29T00:14:57.220Z,16.42
2022-10-29T00:15:20.798Z,16.10
2022-10-29T00:15:43.528Z,17.70
2022-10-29T00:16:07.889Z,17.58
2022-10-29T00:16:35.223Z,16.33
2022-10-29T00:16:57.913Z,17.25
2022-10-29T00:17:20.602Z,17.23
2022-10-29T00:17:43.369Z,16.25
2022-10-29T00:18:06.333Z,16.58
2022-10-29T00:18:32.381Z,16.73
2022-10-29T00:18:55.247Z,17.30
2022-10-29T00:19:17.966Z,17.50
2022-10-29T00:19:40.684Z,17.58
2022-10-29T00:20:03.859Z,17.85
2022-10-29T00:20:26.825Z,19.83
2022-10-29T00:20:49.850Z,19.50
2022-10-29T00:21:14.155Z,21.88
2022-10-29T00:21:38.200Z,22.88
2022-10-29T00:22:00.857Z,22.33
2022-10-29T00:22:23.601Z,20.77
2022-10-29T00:22:46.259Z,21.85
2022-10-29T00:23:08.966Z,20.00
2022-10-29T00:23:31.784Z,19.05
2022-10-29T00:23:54.531Z,19.30
2022-10-29T00:24:17.261Z,22.92
2022-10-29T00:24:39.926Z,19.55
2022-10-29T00:25:02.655Z,18.08
2022-10-29T00:25:25.452Z,19.45
2022-10-29T00:25:48.103Z,20.42
2022-10-29T00:26:11.045Z,21.15
2022-10-29T00:26:33.767Z,20.85
2022-10-29T00:26:56.529Z,21.10
2022-10-29T00:27:19.383Z,20.90
2022-10-29T00:27:42.108Z,21.58
2022-10-29T00:28:04.821Z,20.73
2022-10-29T00:28:27.651Z,22.45
2022-10-29T00:28:52.322Z,21.80
2022-10-29T00:29:15.236Z,20.85
2022-10-29T00:29:37.931Z,20.45
2022-10-29T00:30:00.646Z,20.38
2022-10-29T00:30:23.372Z,21.17
2022-10-29T00:30:46.073Z,22.35
2022-10-29T00:31:10.388Z,22.73
2022-10-29T00:31:33.172Z,24.55
2022-10-29T00:31:55.961Z,25.27
2022-10-29T00:32:18.908Z,24.67
2022-10-29T00:32:41.806Z,25.00
2022-10-29T00:33:04.522Z,24.45
2022-10-29T00:33:27.228Z,21.15
2022-10-29T00:33:51.381Z,24.23
2022-10-29T00:34:15.155Z,23.35
2022-10-29T00:34:37.923Z,24.58
2022-10-29T00:35:00.712Z,19.05
2022-10-29T00:35:23.396Z,22.35
2022-10-29T00:35:55.566Z,24.13
2022-10-29T00:36:19.182Z,21.75
2022-10-29T00:36:41.902Z,22.20
2022-10-29T00:37:04.751Z,23.17
2022-10-29T00:37:27.522Z,19.65
2022-10-29T00:37:50.242Z,20.88
2022-10-29T00:38:12.977Z,20.98
2022-10-29T00:38:35.925Z,21.42
2022-10-29T00:38:58.676Z,22.90
2022-10-29T00:39:21.392Z,30.85
2022-10-29T00:39:44.413Z,28.38
2022-10-29T00:40:11.626Z,22.40
2022-10-29T00:40:37.636Z,24.25
2022-10-29T00:41:00.386Z,25.60
2022-10-29T00:41:29.441Z,24.08
2022-10-29T00:41:53.021Z,23.58
2022-10-29T00:42:16.386Z,22.45
2022-10-29T00:42:39.125Z,23.20
2022-10-29T00:43:13.301Z,23.73
2022-10-29T00:43:39.016Z,24.45
2022-10-29T00:44:29.506Z,26.40
2022-10-29T00:44:53.390Z,23.35
2022-10-29T00:45:20.447Z,22.55
2022-10-29T00:45:46.041Z,23.88
2022-10-29T00:46:09.992Z,23.00
2022-10-29T00:46:34.274Z,23.23
2022-10-29T00:46:59.951Z,23.83
2022-10-29T00:47:23.908Z,23.33
2022-10-29T00:47:47.050Z,25.35
2022-10-29T00:48:09.811Z,25.85
2022-10-29T00:48:35.218Z,27.70
2022-10-29T00:48:59.371Z,30.23
2022-10-29T00:49:22.081Z,30.77
2022-10-29T00:49:45.441Z,29.95
2022-10-29T00:50:09.304Z,30.15
2022-10-29T00:50:32.006Z,27.20
2022-10-29T00:50:54.851Z,32.28
2022-10-29T00:51:17.868Z,36.65
2022-10-29T00:51:40.652Z,35.22
2022-10-29T00:52:04.652Z,32.17
2022-10-29T00:52:31.381Z,29.55
2022-10-29T00:52:54.150Z,26.35
2022-10-29T00:53:19.076Z,30.88
2022-10-29T00:53:43.394Z,24.65
2022-10-29T00:54:08.405Z,27.23
2022-10-29T00:54:31.329Z,32.67
2022-10-29T00:54:54.044Z,29.85
2022-10-29T00:55:16.836Z,30.10
2022-10-29T00:55:39.534Z,25.75
2022-10-29T00:56:02.249Z,39.05
2022-10-29T00:56:24.952Z,42.97
2022-10-29T00:56:49.327Z,33.70
2022-10-29T00:57:14.569Z,28.00
2022-10-29T00:57:38.881Z,28.85
2022-10-29T00:58:01.704Z,39.30
2022-10-29T00:58:24.480Z,28.75
2022-10-29T00:58:47.229Z,27.40
2022-10-29T00:59:09.925Z,32.33
2022-10-29T00:59:32.676Z,28.45
2022-10-29T00:59:55.632Z,26.30
2022-10-29T01:00:18.887Z,27.90
2022-10-29T01:00:41.680Z,28.45
2022-10-29T01:01:04.619Z,27.63
2022-10-29T01:01:27.594Z,26.02
2022-10-29T01:01:50.690Z,24.80
2022-10-29T01:02:13.532Z,24.20
2022-10-29T01:02:36.825Z,24.88
2022-10-29T01:02:59.816Z,24.98
2022-10-29T01:03:22.905Z,23.67
2022-10-29T01:03:45.766Z,24.65
2022-10-29T01:04:10.046Z,24.25
2022-10-29T01:04:32.825Z,25.15
2022-10-29T01:04:55.536Z,24.55
2022-10-29T01:05:21.143Z,25.92
2022-10-29T01:05:44.170Z,30.05
2022-10-29T01:06:08.115Z,26.40
2022-10-29T01:06:30.962Z,24.30
2022-10-29T01:06:53.640Z,23.05
2022-10-29T01:07:16.335Z,25.75
2022-10-29T01:07:39.165Z,25.45
2022-10-29T01:08:02.009Z,35.65
2022-10-29T01:08:25.064Z,33.25
2022-10-29T01:08:47.792Z,23.23
2022-10-29T01:09:10.621Z,22.73
2022-10-29T01:09:33.295Z,23.30
2022-10-29T01:09:56.046Z,23.25
2022-10-29T01:10:18.827Z,23.85
2022-10-29T01:10:47.690Z,23.58
2022-10-29T01:11:16.481Z,24.15
2022-10-29T01:11:42.850Z,22.63
2022-10-29T01:12:21.766Z,23.05
2022-10-29T01:12:56.760Z,22.63
2022-10-29T01:13:37.374Z,22.45
2022-10-29T01:14:05.132Z,23.23
2022-10-29T01:14:32.801Z,22.83
2022-10-29T01:15:02.819Z,22.80
2022-10-29T01:15:29.617Z,23.17
2022-10-29T01:15:58.241Z,21.70
2022-10-29T01:16:27.051Z,22.50
2022-10-29T01:16:52.790Z,22.15
2022-10-29T01:17:20.160Z,20.48
2022-10-29T01:17:50.490Z,23.27
2022-10-29T01:18:17.269Z,21.02
2022-10-29T01:18:43.956Z,21.83
2022-10-29T01:19:13.454Z,22.70
2022-10-29T01:19:53.245Z,21.90
2022-10-29T01:20:51.316Z,20.92
2022-10-29T01:21:39.819Z,22.50
2022-10-29T01:22:03.075Z,25.30
2022-10-29T01:22:27.260Z,22.95
2022-10-29T01:22:53.731Z,21.88
2022-10-29T01:23:36.799Z,23.77
2022-10-29T01:24:21.814Z,23.25
2022-10-29T01:24:54.382Z,25.67
2022-10-29T01:25:32.187Z,26.75
2022-10-29T01:26:17.655Z,23.67
2022-10-29T01:27:34.016Z,23.38
2022-10-29T01:28:03.945Z,36.70
2022-10-29T01:28:33.707Z,25.90
2022-10-29T01:29:05.639Z,32.03
2022-10-29T01:29:42.602Z,32.45
2022-10-29T01:30:09.951Z,26.65
2022-10-29T01:31:03.690Z,24.27
2022-10-29T01:31:28.547Z,23.83
2022-10-29T01:31:52.168Z,25.05
2022-10-29T01:32:15.612Z,28.75
2022-10-29T01:32:44.942Z,25.30
2022-10-29T01:33:10.382Z,24.98
2022-10-29T01:33:36.648Z,31.92
2022-10-29T01:34:03.283Z,31.67
2022-10-29T01:34:28.562Z,24.58
2022-10-29T01:34:55.136Z,27.83
2022-10-29T01:35:19.366Z,42.63
2022-10-29T01:35:47.522Z,34.53
2022-10-29T01:36:16.321Z,23.77
2022-10-29T01:36:40.943Z,22.92
2022-10-29T01:37:06.862Z,25.25
2022-10-29T01:37:31.855Z,24.30
2022-10-29T01:38:02.231Z,23.98
2022-10-29T01:38:28.774Z,23.10
2022-10-29T01:38:54.123Z,22.23
2022-10-29T01:39:20.008Z,31.80
2022-10-29T01:39:44.450Z,31.75
2022-10-29T01:40:09.083Z,27.45
2022-10-29T01:40:34.005Z,30.38
2022-10-29T01:41:00.178Z,28.35
2022-10-29T01:41:25.824Z,31.98
2022-10-29T01:41:52.016Z,33.08
2022-10-29T01:42:17.576Z,32.33
2022-10-29T01:42:41.454Z,45.85
2022-10-29T01:43:06.605Z,25.77
2022-10-29T01:43:33.849Z,25.25
2022-10-29T01:43:59.571Z,24.13
2022-10-29T01:44:29.428Z,25.52
2022-10-29T01:44:54.804Z,29.90
2022-10-29T01:45:18.758Z,24.27
2022-10-29T01:45:43.693Z,23.48
2022-10-29T01:46:10.283Z,25.45
2022-10-29T01:46:35.852Z,24.00
2022-10-29T01:46:59.646Z,24.80
2022-10-29T01:47:22.607Z,23.17
2022-10-29T01:47:46.565Z,22.80
2022-10-29T01:48:11.642Z,22.40
2022-10-29T01:48:35.822Z,23.08
2022-10-29T01:49:01.277Z,24.40
2022-10-29T01:49:28.767Z,24.15
2022-10-29T01:49:53.306Z,23.48
2022-10-29T01:50:18.932Z,28.90
2022-10-29T01:50:43.847Z,23.98
2022-10-29T01:51:08.590Z,23.38
2022-10-29T01:51:33.486Z,23.00
2022-10-29T01:51:56.972Z,25.70
2022-10-29T01:52:20.799Z,22.88
2022-10-29T01:52:43.502Z,23.27
2022-10-29T01:53:06.426Z,22.77
2022-10-29T01:53:29.116Z,22.10
2022-10-29T01:53:51.798Z,21.77
2022-10-29T01:54:17.261Z,23.38
2022-10-29T01:54:41.637Z,23.00
2022-10-29T01:55:04.982Z,22.13
2022-10-29T01:55:30.233Z,22.15
2022-10-29T01:55:52.954Z,22.50
2022-10-29T01:56:15.721Z,21.23
2022-10-29T01:56:38.408Z,23.05
2022-10-29T01:57:01.318Z,23.90
2022-10-29T01:57:31.582Z,21.65
2022-10-29T01:57:54.643Z,21.73
2022-10-29T01:58:19.692Z,21.52
2022-10-29T01:58:43.237Z,21.42
2022-10-29T01:59:09.118Z,20.80
2022-10-29T01:59:54.898Z,21.90
2022-10-29T02:00:19.273Z,21.50
2022-10-29T02:00:49.088Z,22.88
2022-10-29T02:01:19.955Z,21.80
2022-10-29T02:01:49.632Z,21.38
2022-10-29T02:02:15.032Z,20.85
2022-10-29T02:02:55.370Z,21.20
2022-10-29T02:03:25.143Z,22.58
2022-10-29T02:03:51.363Z,23.13
2022-10-29T02:04:32.312Z,21.90
2022-10-29T02:05:01.992Z,21.70
2022-10-29T02:05:28.651Z,21.10
2022-10-29T02:05:54.953Z,20.27
2022-10-29T02:06:22.807Z,21.23
2022-10-29T02:06:50.566Z,22.00
2022-10-29T02:07:15.824Z,21.55
2022-10-29T02:07:45.428Z,20.50
2022-10-29T02:08:15.365Z,20.85
2022-10-29T02:08:42.127Z,21.50
2022-10-29T02:09:08.487Z,20.75
2022-10-29T02:09:34.139Z,20.42
2022-10-29T02:09:58.721Z,20.20
2022-10-29T02:10:26.706Z,19.95
2022-10-29T02:10:53.249Z,20.48
2022-10-29T02:11:18.351Z,20.25
2022-10-29T02:11:44.942Z,22.98
2022-10-29T02:12:11.277Z,22.95
2022-10-29T02:12:35.958Z,22.55
2022-10-29T02:12:58.936Z,21.58
2022-10-29T02:13:24.017Z,20.30
2022-10-29T02:13:49.417Z,22.20
2022-10-29T02:14:15.772Z,23.23
2022-10-29T02:14:39.879Z,21.60
2022-10-29T02:15:04.962Z,32.75
2022-10-29T02:15:30.870Z,35.03
2022-10-29T02:15:53.827Z,37.00
2022-10-29T02:16:18.073Z,23.35
2022-10-29T02:16:40.826Z,28.15
2022-10-29T02:17:03.536Z,34.40
2022-10-29T02:17:26.334Z,22.90
2022-10-29T02:17:49.124Z,26.40
2022-10-29T02:18:11.838Z,32.00
2022-10-29T02:18:41.094Z,27.65
2022-10-29T02:19:03.822Z,23.95
2022-10-29T02:19:30.075Z,34.33
2022-10-29T02:19:52.834Z,25.08
2022-10-29T02:20:15.631Z,21.05
2022-10-29T02:20:42.510Z,20.50
2022-10-29T02:21:05.407Z,30.25
2022-10-29T02:21:28.169Z,40.00
2022-10-29T02:21:51.520Z,32.40
2022-10-29T02:22:14.245Z,24.95
2022-10-29T02:22:36.958Z,26.45
2022-10-29T02:22:59.779Z,29.08
2022-10-29T02:23:22.713Z,27.40
2022-10-29T02:23:45.483Z,27.05
2022-10-29T02:24:09.322Z,23.08
2022-10-29T02:24:32.144Z,34.67
2022-10-29T02:24:54.894Z,40.17
2022-10-29T02:25:17.846Z,34.03
2022-10-29T02:25:40.635Z,22.60
2022-10-29T02:26:03.318Z,22.15
2022-10-29T02:26:26.082Z,24.13
2022-10-29T02:26:48.794Z,22.45
2022-10-29T02:27:11.567Z,22.35
2022-10-29T02:27:34.238Z,23.10
2022-10-29T02:27:57.333Z,22.40
2022-10-29T02:28:43.061Z,22.02
2022-10-29T02:29:05.794Z,22.42
2022-10-29T02:29:28.587Z,22.88
2022-10-29T02:29:51.362Z,23.45
2022-10-29T02:30:14.443Z,23.55
2022-10-29T02:30:37.222Z,21.73
2022-10-29T02:30:59.967Z,23.98
2022-10-29T02:31:24.156Z,24.60
2022-10-29T02:31:46.946Z,24.02
2022-10-29T02:32:09.678Z,21.20
2022-10-29T02:32:33.134Z,22.45
2022-10-29T02:32:56.088Z,24.67
2022-10-29T02:33:19.327Z,28.17
2022-10-29T02:33:41.990Z,24.35
2022-10-29T02:34:04.641Z,21.92
2022-10-29T02:34:29.281Z,21.85
2022-10-29T02:34:51.996Z,21.90
2022-10-29T02:35:14.941Z,22.15
2022-10-29T02:35:37.678Z,22.20
2022-10-29T02:36:00.488Z,23.23
2022-10-29T02:36:23.211Z,23.35
2022-10-29T02:36:45.928Z,24.90
2022-10-29T02:37:08.662Z,22.83
2022-10-29T02:37:31.437Z,22.30
2022-10-29T02:37:54.729Z,23.50
2022-10-29T02:38:17.537Z,26.15
2022-10-29T02:38:40.242Z,33.30
2022-10-29T02:39:03.027Z,22.98
2022-10-29T02:39:26.014Z,23.00
2022-10-29T02:39:48.709Z,22.70
2022-10-29T02:40:13.444Z,22.55
2022-10-29T02:40:36.078Z,24.73
2022-10-29T02:40:58.894Z,24.60
2022-10-29T02:41:21.615Z,23.20
2022-10-29T02:41:44.967Z,22.45
2022-10-29T02:42:07.764Z,21.50
2022-10-29T02:42:30.739Z,23.27
2022-10-29T02:42:53.657Z,24.85
2022-10-29T02:43:16.753Z,28.80
2022-10-29T02:43:39.639Z,50.60
2022-10-29T02:44:02.365Z,28.58
2022-10-29T02:44:25.130Z,29.67
2022-10-29T02:44:47.836Z,26.58
2022-10-29T02:45:11.061Z,26.27
2022-10-29T02:45:33.805Z,37.25
2022-10-29T02:46:13.774Z,41.03
2022-10-29T02:46:39.920Z,28.67
2022-10-29T02:47:02.913Z,29.02
2022-10-29T02:47:25.641Z,28.05
2022-10-29T02:47:50.906Z,29.85
2022-10-29T02:48:13.599Z,36.22
2022-10-29T02:48:36.264Z,36.05
2022-10-29T02:48:58.995Z,32.75
2022-10-29T02:49:21.764Z,35.67
2022-10-29T02:49:44.535Z,32.75
2022-10-29T02:50:09.021Z,29.27
2022-10-29T02:50:31.736Z,29.25
2022-10-29T02:50:54.588Z,40.65
2022-10-29T02:51:17.299Z,38.90
2022-10-29T02:51:39.988Z,35.55
2022-10-29T02:52:02.776Z,41.95
2022-10-29T02:52:25.478Z,30.70
2022-10-29T02:52:48.165Z,30.45
2022-10-29T02:53:10.956Z,34.42
2022-10-29T02:53:33.686Z,35.63
2022-10-29T02:53:56.685Z,40.78
2022-10-29T02:54:19.402Z,49.45
2022-10-29T02:54:43.105Z,31.95
2022-10-29T02:55:07.502Z,24.95
2022-10-29T02:55:30.162Z,24.77
2022-10-29T02:55:52.871Z,24.05
2022-10-29T02:56:15.586Z,23.95
2022-10-29T02:56:38.342Z,23.75
2022-10-29T02:57:01.210Z,22.40
2022-10-29T02:57:23.966Z,27.13
2022-10-29T02:57:46.865Z,44.75
2022-10-29T02:58:09.726Z,49.58
2022-10-29T02:58:32.650Z,39.38
2022-10-29T02:58:55.375Z,28.73
2022-10-29T02:59:18.187Z,29.30
2022-10-29T02:59:40.906Z,25.92
2022-10-29T03:00:03.977Z,29.50
2022-10-29T03:00:26.715Z,24.60
2022-10-29T03:00:50.333Z,26.42
2022-10-29T03:01:13.141Z,26.33
2022-10-29T03:01:37.448Z,35.25
2022-10-29T03:02:00.548Z,25.25
2022-10-29T03:02:23.427Z,36.42
2022-10-29T03:02:46.352Z,30.75
2022-10-29T03:03:11.898Z,36.13
2022-10-29T03:03:34.840Z,27.73
2022-10-29T03:03:58.093Z,30.40
2022-10-29T03:04:20.802Z,32.35
2022-10-29T03:04:45.096Z,29.33
2022-10-29T03:05:08.612Z,25.60
2022-10-29T03:05:31.420Z,24.75
2022-10-29T03:05:54.268Z,25.50
2022-10-29T03:06:17.843Z,32.45
2022-10-29T03:06:40.545Z,28.45
2022-10-29T03:07:04.817Z,26.17
2022-10-29T03:07:27.517Z,23.30
2022-10-29T03:07:50.262Z,39.45
2022-10-29T03:08:13.007Z,30.13
2022-10-29T03:08:35.877Z,37.88
2022-10-29T03:08:58.578Z,40.40
2022-10-29T03:09:21.388Z,35.40
2022-10-29T03:09:44.126Z,40.88
2022-10-29T03:10:07.965Z,54.67
2022-10-29T03:10:30.798Z,36.08
2022-10-29T03:10:54.661Z,42.60
2022-10-29T03:11:17.504Z,34.40
2022-10-29T03:11:40.161Z,34.67
2022-10-29T03:12:03.044Z,32.95
2022-10-29T03:12:25.770Z,30.88
2022-10-29T03:12:48.524Z,34.95
2022-10-29T03:13:11.202Z,28.10
2022-10-29T03:13:34.171Z,32.15
2022-10-29T03:13:57.126Z,25.48
2022-10-29T03:14:19.997Z,25.08
2022-10-29T03:14:42.716Z,29.80
2022-10-29T03:15:08.973Z,39.65
2022-10-29T03:15:31.685Z,44.15
2022-10-29T03:15:54.456Z,46.80
2022-10-29T03:16:17.310Z,36.22
2022-10-29T03:16:41.429Z,24.92
2022-10-29T03:17:04.165Z,23.83
2022-10-29T03:17:26.858Z,25.15
2022-10-29T03:17:49.684Z,24.17
2022-10-29T03:18:12.405Z,26.30
2022-10-29T03:18:35.110Z,25.80
2022-10-29T03:18:57.786Z,21.25
2022-10-29T03:19:20.577Z,22.08
2022-10-29T03:19:43.292Z,29.88
2022-10-29T03:20:08.390Z,25.55
2022-10-29T03:20:31.210Z,22.60
2022-10-29T03:20:53.925Z,20.67
2022-10-29T03:21:16.647Z,20.90
2022-10-29T03:21:39.396Z,23.25
2022-10-29T03:22:02.213Z,20.98
2022-10-29T03:22:24.906Z,23.05
2022-10-29T03:22:47.585Z,36.95
2022-10-29T03:23:10.241Z,32.05
2022-10-29T03:23:32.957Z,32.63
2022-10-29T03:23:55.779Z,24.45
2022-10-29T03:24:18.525Z,22.23
2022-10-29T03:24:41.246Z,24.30
2022-10-29T03:25:04.261Z,23.50
2022-10-29T03:25:27.112Z,23.35
2022-10-29T03:25:55.602Z,22.10
2022-10-29T03:26:19.153Z,24.80
2022-10-29T03:26:41.771Z,29.27
2022-10-29T03:27:04.567Z,21.00
2022-10-29T03:27:27.271Z,23.48
2022-10-29T03:27:49.965Z,26.23
2022-10-29T03:28:12.642Z,28.05
2022-10-29T03:28:35.739Z,21.25
2022-10-29T03:28:58.511Z,20.40
2022-10-29T03:29:21.215Z,19.83
2022-10-29T03:29:44.025Z,20.73
2022-10-29T03:30:08.191Z,19.92
2022-10-29T03:30:30.951Z,19.45
2022-10-29T03:30:53.651Z,20.38
2022-10-29T03:31:16.421Z,20.50
2022-10-29T03:31:40.708Z,20.13
2022-10-29T03:32:06.165Z,19.13
2022-10-29T03:32:28.881Z,18.48
2022-10-29T03:32:51.631Z,18.75
2022-10-29T03:33:14.424Z,19.48
2022-10-29T03:33:37.212Z,19.52
2022-10-29T03:34:00.006Z,20.02
2022-10-29T03:34:22.788Z,20.02
2022-10-29T03:34:45.566Z,19.45
2022-10-29T03:35:09.296Z,20.30
2022-10-29T03:35:32.081Z,21.90
2022-10-29T03:35:58.939Z,19.90
2022-10-29T03:36:22.075Z,19.77
2022-10-29T03:36:44.891Z,19.23
2022-10-29T03:37:07.896Z,20.38
2022-10-29T03:37:30.643Z,19.25
2022-10-29T03:37:53.436Z,26.02
2022-10-29T03:38:16.247Z,25.90
2022-10-29T03:38:39.006Z,19.58
2022-10-29T03:39:01.901Z,21.52
2022-10-29T03:39:24.776Z,20.02
2022-10-29T03:39:47.583Z,25.80
2022-10-29T03:40:10.757Z,26.20
2022-10-29T03:40:33.488Z,22.77
2022-10-29T03:40:56.309Z,29.63
2022-10-29T03:41:20.406Z,27.23
2022-10-29T03:41:44.308Z,23.45
2022-10-29T03:42:07.440Z,25.98
2022-10-29T03:42:31.528Z,21.92
2022-10-29T03:42:54.566Z,21.52
2022-10-29T03:43:17.682Z,21.80
2022-10-29T03:43:40.628Z,25.65
2022-10-29T03:44:03.396Z,27.52
2022-10-29T03:44:26.125Z,24.38
2022-10-29T03:44:48.956Z,25.67
2022-10-29T03:45:11.834Z,29.10
2022-10-29T03:45:34.594Z,25.23
2022-10-29T03:45:57.890Z,24.80
2022-10-29T03:46:20.675Z,25.05
2022-10-29T03:46:44.766Z,28.67
2022-10-29T03:47:09.253Z,23.95
2022-10-29T03:47:33.368Z,23.88
2022-10-29T03:47:58.025Z,28.10
2022-10-29T03:48:21.176Z,24.63
2022-10-29T03:48:43.853Z,27.10
2022-10-29T03:49:07.033Z,24.20
2022-10-29T03:49:29.748Z,23.75
2022-10-29T03:49:52.458Z,25.75
2022-10-29T03:50:15.274Z,26.25
2022-10-29T03:50:38.022Z,25.40
2022-10-29T03:51:01.771Z,30.63
2022-10-29T03:51:24.564Z,31.90
2022-10-29T03:51:47.614Z,29.38
2022-10-29T03:52:11.131Z,27.83
2022-10-29T03:52:34.082Z,28.02
2022-10-29T03:52:56.872Z,24.95
2022-10-29T03:53:19.577Z,25.05
2022-10-29T03:53:42.278Z,25.27
2022-10-29T03:54:05.269Z,24.70
2022-10-29T03:54:28.035Z,24.58
2022-10-29T03:54:50.751Z,27.83
2022-10-29T03:55:13.467Z,24.38
2022-10-29T03:55:36.154Z,23.08
2022-10-29T03:55:58.870Z,22.90
2022-10-29T03:56:21.620Z,23.00
2022-10-29T03:56:44.294Z,22.33
2022-10-29T03:57:06.979Z,22.70
2022-10-29T03:57:29.754Z,21.73
2022-10-29T03:57:52.588Z,21.67
2022-10-29T03:58:15.673Z,21.60
2022-10-29T03:58:38.561Z,21.70
2022-10-29T03:59:01.300Z,20.98
2022-10-29T03:59:24.183Z,21.13
2022-10-29T03:59:50.021Z,20.88
2022-10-29T04:00:16.461Z,22.10
2022-10-29T04:00:39.200Z,20.92
2022-10-29T04:01:03.049Z,20.15
2022-10-29T04:01:25.939Z,20.58
2022-10-29T04:01:50.374Z,20.25
2022-10-29T04:02:13.436Z,20.00
2022-10-29T04:02:36.609Z,20.55
2022-10-29T04:02:59.836Z,20.08
2022-10-29T04:03:23.039Z,19.00
2022-10-29T04:03:45.867Z,20.63
2022-10-29T04:04:09.761Z,20.27
2022-10-29T04:04:32.507Z,20.17
2022-10-29T04:04:55.202Z,20.27
2022-10-29T04:05:17.901Z,19.77
2022-10-29T04:05:41.666Z,20.23
2022-10-29T04:06:09.720Z,22.38
2022-10-29T04:06:32.466Z,22.10
2022-10-29T04:06:55.216Z,21.40
2022-10-29T04:07:17.947Z,22.02
2022-10-29T04:07:40.632Z,21.15
2022-10-29T04:08:03.946Z,20.67
2022-10-29T04:08:26.714Z,20.40
2022-10-29T04:08:49.470Z,20.00
2022-10-29T04:09:12.141Z,19.35
2022-10-29T04:09:35.021Z,19.80
2022-10-29T04:09:59.205Z,19.42
2022-10-29T04:10:21.951Z,26.17
2022-10-29T04:10:45.908Z,22.67
2022-10-29T04:11:10.736Z,19.10
2022-10-29T04:11:33.430Z,18.35
2022-10-29T04:11:56.100Z,18.33
2022-10-29T04:12:18.872Z,18.77
2022-10-29T04:12:45.933Z,19.67
2022-10-29T04:13:08.632Z,19.48
2022-10-29T04:13:31.386Z,19.15
2022-10-29T04:13:54.135Z,19.27
2022-10-29T04:14:16.836Z,19.10
2022-10-29T04:14:44.526Z,18.90
2022-10-29T04:15:09.700Z,19.73
2022-10-29T04:15:32.371Z,19.77
2022-10-29T04:15:55.292Z,19.90
2022-10-29T04:16:17.901Z,18.50
2022-10-29T04:16:40.801Z,20.35
2022-10-29T04:17:04.970Z,20.85
2022-10-29T04:17:27.725Z,22.00
2022-10-29T04:17:51.575Z,23.27
2022-10-29T04:18:14.379Z,26.27
2022-10-29T04:18:37.145Z,23.58
2022-10-29T04:18:59.920Z,19.83
2022-10-29T04:19:22.678Z,20.13
2022-10-29T04:19:45.490Z,21.83
2022-10-29T04:20:19.134Z,22.15
2022-10-29T04:24:01.172Z,18.27
2022-10-29T04:28:36.940Z,20.50
2022-10-29T04:28:50.190Z,24.90
2022-10-29T04:29:12.889Z,31.15
2022-10-29T04:29:35.599Z,30.30
2022-10-29T04:29:58.447Z,23.95
2022-10-29T04:30:21.279Z,29.27
2022-10-29T04:30:44.010Z,29.75
2022-10-29T04:31:06.780Z,39.08
2022-10-29T04:31:29.495Z,26.80
2022-10-29T04:31:52.460Z,23.25
2022-10-29T04:32:16.718Z,23.30
2022-10-29T04:32:39.575Z,36.50
2022-10-29T04:33:02.242Z,46.33
2022-10-29T04:33:24.947Z,41.85
2022-10-29T04:33:47.678Z,21.48
2022-10-29T04:34:10.545Z,33.28
2022-10-29T04:34:33.406Z,28.73
2022-10-29T04:34:56.187Z,22.50
2022-10-29T04:35:18.877Z,23.98
2022-10-29T04:35:41.668Z,35.40
2022-10-29T04:36:05.035Z,29.77
2022-10-29T04:36:27.717Z,27.88
2022-10-29T04:36:52.671Z,33.45
2022-10-29T04:37:16.564Z,30.58
2022-10-29T04:37:39.308Z,28.35
2022-10-29T04:38:08.161Z,26.58
2022-10-29T04:38:30.903Z,23.73
2022-10-29T04:38:53.618Z,26.35
2022-10-29T04:39:19.542Z,21.85
2022-10-29T04:39:48.299Z,21.95
2022-10-29T04:40:12.159Z,23.35
2022-10-29T04:40:34.884Z,22.30
2022-10-29T04:40:58.608Z,23.95
2022-10-29T04:41:21.315Z,33.08
2022-10-29T04:41:47.349Z,26.02
2022-10-29T04:42:10.182Z,22.05
2022-10-29T04:42:36.344Z,21.52
2022-10-29T04:42:59.232Z,20.38
2022-10-29T04:43:22.146Z,20.75
2022-10-29T04:43:45.046Z,20.80
2022-10-29T04:44:07.855Z,20.27
2022-10-29T04:44:30.678Z,20.13
2022-10-29T04:44:53.381Z,23.23
2022-10-29T04:45:16.451Z,20.35
2022-10-29T04:45:39.430Z,23.13
2022-10-29T04:46:02.796Z,21.42
2022-10-29T04:46:25.591Z,22.70
2022-10-29T04:46:48.414Z,23.92
2022-10-29T04:47:11.233Z,23.75
2022-10-29T04:47:35.261Z,21.25
2022-10-29T04:48:01.472Z,21.55
2022-10-29T04:48:24.307Z,25.35
2022-10-29T04:48:47.092Z,23.75
2022-10-29T04:49:10.014Z,23.20
2022-10-29T04:49:33.194Z,22.13
2022-10-29T04:49:56.046Z,22.90
2022-10-29T04:50:18.728Z,22.30
2022-10-29T04:50:41.437Z,22.13
2022-10-29T04:51:04.492Z,23.10
2022-10-29T04:51:27.305Z,22.45
2022-10-29T04:51:50.044Z,22.98
2022-10-29T04:52:12.806Z,27.13
2022-10-29T04:52:35.540Z,26.23
2022-10-29T04:52:59.387Z,25.40
2022-10-29T04:53:22.060Z,23.33
2022-10-29T04:53:44.774Z,23.10
2022-10-29T04:54:07.526Z,23.85
2022-10-29T04:54:30.293Z,26.60
2022-10-29T04:54:52.997Z,25.75
2022-10-29T04:55:15.732Z,23.58
2022-10-29T04:55:38.827Z,31.38
2022-10-29T04:56:01.779Z,30.10
2022-10-29T04:56:24.542Z,28.52
2022-10-29T04:56:47.449Z,23.83
2022-10-29T04:57:10.242Z,22.95
2022-10-29T04:57:33.019Z,22.92
2022-10-29T04:57:56.009Z,22.23
2022-10-29T04:58:19.552Z,23.30
2022-10-29T04:58:42.202Z,22.20
2022-10-29T04:59:04.926Z,23.25
2022-10-29T04:59:27.721Z,21.75
2022-10-29T04:59:50.496Z,21.73
2022-10-29T05:00:17.925Z,21.45
2022-10-29T05:00:41.805Z,22.30
2022-10-29T05:01:05.438Z,22.73
2022-10-29T05:01:30.239Z,23.90
2022-10-29T05:01:55.435Z,26.25
2022-10-29T05:02:18.166Z,25.95
2022-10-29T05:02:42.422Z,20.67
2022-10-29T05:03:05.112Z,22.05
2022-10-29T05:03:27.871Z,21.88
2022-10-29T05:03:53.037Z,22.02
2022-10-29T05:04:17.086Z,22.48
2022-10-29T05:04:39.848Z,21.95
2022-10-29T05:05:02.561Z,21.95
2022-10-29T05:05:28.013Z,23.20
2022-10-29T05:05:50.798Z,24.13
2022-10-29T05:06:13.547Z,22.13
2022-10-29T05:06:36.355Z,22.70
2022-10-29T05:06:59.049Z,27.42
2022-10-29T05:07:22.090Z,23.48
2022-10-29T05:07:44.875Z,33.30
2022-10-29T05:08:07.670Z,39.05
2022-10-29T05:08:30.507Z,24.40
2022-10-29T05:08:53.299Z,22.35
2022-10-29T05:09:16.312Z,24.10
2022-10-29T05:09:39.150Z,20.77
2022-10-29T05:10:01.831Z,21.67
2022-10-29T05:10:25.780Z,21.92
2022-10-29T05:10:48.485Z,24.48
2022-10-29T05:11:11.205Z,22.55
2022-10-29T05:11:33.943Z,22.20
2022-10-29T05:11:56.663Z,20.67
2022-10-29T05:12:19.531Z,20.52
2022-10-29T05:12:42.351Z,21.35
2022-10-29T05:13:06.740Z,21.80
2022-10-29T05:13:29.538Z,22.20
2022-10-29T05:13:52.313Z,21.05
2022-10-29T05:14:15.125Z,20.67
2022-10-29T05:14:37.824Z,21.08
2022-10-29T05:15:00.790Z,21.30
2022-10-29T05:15:23.455Z,21.85
2022-10-29T05:15:53.018Z,21.08
2022-10-29T05:16:16.504Z,21.15
2022-10-29T05:16:39.187Z,20.27
2022-10-29T05:17:02.017Z,19.40
2022-10-29T05:17:24.739Z,19.77
2022-10-29T05:17:48.974Z,21.45
2022-10-29T05:18:11.705Z,20.15
2022-10-29T05:18:37.461Z,20.88
2022-10-29T05:19:00.399Z,18.42
2022-10-29T05:19:24.793Z,18.80
2022-10-29T05:19:47.458Z,19.88
2022-10-29T05:20:11.435Z,21.35